Terminal Aerodrome Forecast
Issued by NWS

Home | Current Version | Previous Version | Text Only | Print | Product List | Glossary On
Versions: 1 2 3 4 5 6 7 8 9 10 11 12 13 14 15 16 17 18 19 20
000
FTUS46 KMFR 061725
TAFLMT
TAF
KLMT 061725Z 0618/0718 VRB03KT P6SM BKN200
     FM062300 32009KT P6SM VCTS SCT060CB BKN200
     FM070500 VRB03KT P6SM BKN200=

USA.gov is the U.S. government's official web portal to all federal, state and local government web resources and services.